sensor_id;sensor_type;location;lat;lon;timestamp;temperature;humidity
23738;DHT22;12049;51.068;3.688;2022-10-23T00:02:00;17.00;99.90
23738;DHT22;12049;51.068;3.688;2022-10-23T00:04:26;17.10;99.90
23738;DHT22;12049;51.068;3.688;2022-10-23T00:06:52;17.00;99.90
23738;DHT22;12049;51.068;3.688;2022-10-23T00:09:20;17.00;99.90
23738;DHT22;12049;51.068;3.688;2022-10-23T00:11:46;16.90;99.90
23738;DHT22;12049;51.068;3.688;2022-10-23T00:14:13;16.80;99.90
23738;DHT22;12049;51.068;3.688;2022-10-23T00:16:38;16.80;99.90
23738;DHT22;12049;51.068;3.688;2022-10-23T00:19:10;16.90;99.90
23738;DHT22;12049;51.068;3.688;2022-10-23T00:21:39;16.80;99.90
23738;DHT22;12049;51.068;3.688;2022-10-23T00:24:04;16.80;99.90
23738;DHT22;12049;51.068;3.688;2022-10-23T00:26:30;16.80;99.90
23738;DHT22;12049;51.068;3.688;2022-10-23T00:28:56;16.70;99.90
23738;DHT22;12049;51.068;3.688;2022-10-23T00:31:22;16.70;99.90
23738;DHT22;12049;51.068;3.688;2022-10-23T00:33:48;16.70;99.90
23738;DHT22;12049;51.068;3.688;2022-10-23T00:36:14;16.70;99.90
23738;DHT22;12049;51.068;3.688;2022-10-23T00:38:39;16.70;99.90
23738;DHT22;12049;51.068;3.688;2022-10-23T00:41:05;16.80;99.90
23738;DHT22;12049;51.068;3.688;2022-10-23T00:43:31;16.70;99.90
23738;DHT22;12049;51.068;3.688;2022-10-23T00:45:57;16.80;99.90
23738;DHT22;12049;51.068;3.688;2022-10-23T00:48:23;16.80;99.90
23738;DHT22;12049;51.068;3.688;2022-10-23T00:50:49;16.80;99.90
23738;DHT22;12049;51.068;3.688;2022-10-23T00:53:16;16.90;99.90
23738;DHT22;12049;51.068;3.688;2022-10-23T00:55:42;16.90;99.90
23738;DHT22;12049;51.068;3.688;2022-10-23T00:58:14;16.90;99.90
23738;DHT22;12049;51.068;3.688;2022-10-23T01:00:50;16.90;99.90
23738;DHT22;12049;51.068;3.688;2022-10-23T01:03:17;16.90;99.90
23738;DHT22;12049;51.068;3.688;2022-10-23T01:06:27;16.90;99.90
23738;DHT22;12049;51.068;3.688;2022-10-23T01:11:19;16.90;99.90
23738;DHT22;12049;51.068;3.688;2022-10-23T01:14:06;17.00;99.90
23738;DHT22;12049;51.068;3.688;2022-10-23T01:19:21;17.00;99.90
23738;DHT22;12049;51.068;3.688;2022-10-23T01:26:59;17.10;99.90
23738;DHT22;12049;51.068;3.688;2022-10-23T01:31:55;17.10;99.90
23738;DHT22;12049;51.068;3.688;2022-10-23T01:34:24;17.10;99.90
23738;DHT22;12049;51.068;3.688;2022-10-23T01:36:52;17.00;99.90
23738;DHT22;12049;51.068;3.688;2022-10-23T01:39:23;17.00;99.90
23738;DHT22;12049;51.068;3.688;2022-10-23T01:42:02;17.10;99.90
23738;DHT22;12049;51.068;3.688;2022-10-23T01:47:01;17.10;99.90
23738;DHT22;12049;51.068;3.688;2022-10-23T01:49:28;17.10;99.90
23738;DHT22;12049;51.068;3.688;2022-10-23T01:51:55;17.10;99.90
23738;DHT22;12049;51.068;3.688;2022-10-23T01:54:23;17.10;99.90
23738;DHT22;12049;51.068;3.688;2022-10-23T01:56:49;17.10;99.90
23738;DHT22;12049;51.068;3.688;2022-10-23T01:59:17;17.10;99.90
23738;DHT22;12049;51.068;3.688;2022-10-23T02:01:44;17.10;99.90
23738;DHT22;12049;51.068;3.688;2022-10-23T02:04:11;17.10;99.90
23738;DHT22;12049;51.068;3.688;2022-10-23T02:06:39;17.10;99.90
23738;DHT22;12049;51.068;3.688;2022-10-23T02:09:05;17.10;99.90
23738;DHT22;12049;51.068;3.688;2022-10-23T02:11:31;17.10;99.90
23738;DHT22;12049;51.068;3.688;2022-10-23T02:14:10;17.10;99.90
23738;DHT22;12049;51.068;3.688;2022-10-23T02:16:50;17.20;99.90
23738;DHT22;12049;51.068;3.688;2022-10-23T02:19:28;17.20;99.90
23738;DHT22;12049;51.068;3.688;2022-10-23T02:21:58;17.20;99.90
23738;DHT22;12049;51.068;3.688;2022-10-23T02:24:28;17.20;99.90
23738;DHT22;12049;51.068;3.688;2022-10-23T02:26:56;17.10;99.90
23738;DHT22;12049;51.068;3.688;2022-10-23T02:29:27;17.20;99.90
23738;DHT22;12049;51.068;3.688;2022-10-23T02:31:54;17.10;99.90
23738;DHT22;12049;51.068;3.688;2022-10-23T02:34:20;17.10;99.90
23738;DHT22;12049;51.068;3.688;2022-10-23T02:36:45;17.10;99.90
23738;DHT22;12049;51.068;3.688;2022-10-23T02:39:11;17.10;99.90
23738;DHT22;12049;51.068;3.688;2022-10-23T02:41:46;17.10;99.90
23738;DHT22;12049;51.068;3.688;2022-10-23T02:52:23;17.00;99.90
23738;DHT22;12049;51.068;3.688;2022-10-23T02:57:45;17.10;99.90
23738;DHT22;12049;51.068;3.688;2022-10-23T03:00:13;17.10;99.90
23738;DHT22;12049;51.068;3.688;2022-10-23T03:05:06;17.10;99.90
23738;DHT22;12049;51.068;3.688;2022-10-23T03:07:33;17.10;99.90
23738;DHT22;12049;51.068;3.688;2022-10-23T03:09:58;17.10;99.90
23738;DHT22;12049;51.068;3.688;2022-10-23T03:12:24;17.10;99.90
23738;DHT22;12049;51.068;3.688;2022-10-23T03:14:49;17.10;99.90
23738;DHT22;12049;51.068;3.688;2022-10-23T03:17:15;17.10;99.90
23738;DHT22;12049;51.068;3.688;2022-10-23T03:19:40;17.10;99.90
23738;DHT22;12049;51.068;3.688;2022-10-23T03:22:06;17.10;99.90
23738;DHT22;12049;51.068;3.688;2022-10-23T03:24:31;17.10;99.90
23738;DHT22;12049;51.068;3.688;2022-10-23T03:26:57;17.10;99.90
23738;DHT22;12049;51.068;3.688;2022-10-23T03:29:22;17.10;99.90
23738;DHT22;12049;51.068;3.688;2022-10-23T03:31:48;17.00;99.90
23738;DHT22;12049;51.068;3.688;2022-10-23T03:34:13;17.00;99.90
23738;DHT22;12049;51.068;3.688;2022-10-23T03:36:39;17.00;99.90
23738;DHT22;12049;51.068;3.688;2022-10-23T03:39:04;16.90;99.90
23738;DHT22;12049;51.068;3.688;2022-10-23T03:41:30;16.90;99.90
23738;DHT22;12049;51.068;3.688;2022-10-23T03:43:56;16.90;99.90
23738;DHT22;12049;51.068;3.688;2022-10-23T03:46:22;17.00;99.90
23738;DHT22;12049;51.068;3.688;2022-10-23T03:48:47;17.00;99.90
23738;DHT22;12049;51.068;3.688;2022-10-23T03:51:13;17.00;99.90
23738;DHT22;12049;51.068;3.688;2022-10-23T03:53:38;17.00;99.90
23738;DHT22;12049;51.068;3.688;2022-10-23T03:56:04;17.00;99.90
23738;DHT22;12049;51.068;3.688;2022-10-23T03:58:30;17.00;99.90
23738;DHT22;12049;51.068;3.688;2022-10-23T04:00:58;16.90;99.90
23738;DHT22;12049;51.068;3.688;2022-10-23T04:03:27;16.90;99.90
23738;DHT22;12049;51.068;3.688;2022-10-23T04:05:52;16.80;99.90
23738;DHT22;12049;51.068;3.688;2022-10-23T04:08:18;16.80;99.90
23738;DHT22;12049;51.068;3.688;2022-10-23T04:10:43;16.80;99.90
23738;DHT22;12049;51.068;3.688;2022-10-23T04:13:09;16.90;99.90
23738;DHT22;12049;51.068;3.688;2022-10-23T04:15:34;16.90;99.90
23738;DHT22;12049;51.068;3.688;2022-10-23T04:18:00;16.80;99.90
23738;DHT22;12049;51.068;3.688;2022-10-23T04:20:25;16.80;99.90
23738;DHT22;12049;51.068;3.688;2022-10-23T04:22:51;16.90;99.90
23738;DHT22;12049;51.068;3.688;2022-10-23T04:25:16;16.90;99.90
23738;DHT22;12049;51.068;3.688;2022-10-23T04:27:42;16.90;99.90
23738;DHT22;12049;51.068;3.688;2022-10-23T04:30:08;16.90;99.90
23738;DHT22;12049;51.068;3.688;2022-10-23T04:32:33;16.90;99.90
23738;DHT22;12049;51.068;3.688;2022-10-23T04:34:59;16.90;99.90
23738;DHT22;12049;51.068;3.688;2022-10-23T04:37:24;16.90;99.90
23738;DHT22;12049;51.068;3.688;2022-10-23T04:39:50;16.90;99.90
23738;DHT22;12049;51.068;3.688;2022-10-23T04:42:16;16.90;99.90
23738;DHT22;12049;51.068;3.688;2022-10-23T04:44:41;16.80;99.90
23738;DHT22;12049;51.068;3.688;2022-10-23T04:47:06;16.80;99.90
23738;DHT22;12049;51.068;3.688;2022-10-23T04:49:32;16.80;99.90
23738;DHT22;12049;51.068;3.688;2022-10-23T04:51:57;16.70;99.90
23738;DHT22;12049;51.068;3.688;2022-10-23T04:54:23;16.70;99.90
23738;DHT22;12049;51.068;3.688;2022-10-23T04:56:48;16.70;99.90
23738;DHT22;12049;51.068;3.688;2022-10-23T04:59:14;16.70;99.90
23738;DHT22;12049;51.068;3.688;2022-10-23T05:01:39;16.70;99.90
23738;DHT22;12049;51.068;3.688;2022-10-23T05:04:05;16.70;99.90
23738;DHT22;12049;51.068;3.688;2022-10-23T05:06:30;16.70;99.90
23738;DHT22;12049;51.068;3.688;2022-10-23T05:08:56;16.70;99.90
23738;DHT22;12049;51.068;3.688;2022-10-23T05:11:21;16.70;99.90
23738;DHT22;12049;51.068;3.688;2022-10-23T05:13:47;16.70;99.90
23738;DHT22;12049;51.068;3.688;2022-10-23T05:16:19;16.70;99.90
23738;DHT22;12049;51.068;3.688;2022-10-23T05:18:48;16.60;99.90
23738;DHT22;12049;51.068;3.688;2022-10-23T05:21:16;16.60;99.90
23738;DHT22;12049;51.068;3.688;2022-10-23T05:23:44;16.70;99.90
23738;DHT22;12049;51.068;3.688;2022-10-23T05:26:10;16.70;99.90
23738;DHT22;12049;51.068;3.688;2022-10-23T05:28:36;16.60;99.90
23738;DHT22;12049;51.068;3.688;2022-10-23T05:31:02;16.60;99.90
23738;DHT22;12049;51.068;3.688;2022-10-23T05:33:29;16.60;99.90
23738;DHT22;12049;51.068;3.688;2022-10-23T05:35:54;16.60;99.90
23738;DHT22;12049;51.068;3.688;2022-10-23T05:38:20;16.60;99.90
23738;DHT22;12049;51.068;3.688;2022-10-23T05:40:46;16.60;99.90
23738;DHT22;12049;51.068;3.688;2022-10-23T05:43:12;16.50;99.90
23738;DHT22;12049;51.068;3.688;2022-10-23T05:45:37;16.50;99.90
23738;DHT22;12049;51.068;3.688;2022-10-23T05:48:03;16.50;99.90
23738;DHT22;12049;51.068;3.688;2022-10-23T05:50:28;16.50;99.90
23738;DHT22;12049;51.068;3.688;2022-10-23T05:52:54;16.50;99.90
23738;DHT22;12049;51.068;3.688;2022-10-23T05:55:19;16.50;99.90
23738;DHT22;12049;51.068;3.688;2022-10-23T05:57:45;16.50;99.90
23738;DHT22;12049;51.068;3.688;2022-10-23T06:00:10;16.50;99.90
23738;DHT22;12049;51.068;3.688;2022-10-23T06:02:36;16.70;99.90
23738;DHT22;12049;51.068;3.688;2022-10-23T06:05:02;16.60;99.90
23738;DHT22;12049;51.068;3.688;2022-10-23T06:07:28;16.60;99.90
23738;DHT22;12049;51.068;3.688;2022-10-23T06:09:54;16.60;99.90
23738;DHT22;12049;51.068;3.688;2022-10-23T06:12:20;16.70;99.90
23738;DHT22;12049;51.068;3.688;2022-10-23T06:14:46;16.60;99.90
23738;DHT22;12049;51.068;3.688;2022-10-23T06:17:11;16.60;99.90
23738;DHT22;12049;51.068;3.688;2022-10-23T06:19:37;16.60;99.90
23738;DHT22;12049;51.068;3.688;2022-10-23T06:22:03;16.50;99.90
23738;DHT22;12049;51.068;3.688;2022-10-23T06:24:29;16.50;99.90
23738;DHT22;12049;51.068;3.688;2022-10-23T06:26:54;16.60;99.90
23738;DHT22;12049;51.068;3.688;2022-10-23T06:29:20;16.50;99.90
23738;DHT22;12049;51.068;3.688;2022-10-23T06:31:45;16.50;99.90
23738;DHT22;12049;51.068;3.688;2022-10-23T06:34:11;16.40;99.90
23738;DHT22;12049;51.068;3.688;2022-10-23T06:36:36;16.40;99.90
23738;DHT22;12049;51.068;3.688;2022-10-23T06:39:05;16.50;99.90
23738;DHT22;12049;51.068;3.688;2022-10-23T06:41:30;16.50;99.90
23738;DHT22;12049;51.068;3.688;2022-10-23T06:43:56;16.60;99.90
23738;DHT22;12049;51.068;3.688;2022-10-23T06:46:21;16.60;99.90
23738;DHT22;12049;51.068;3.688;2022-10-23T06:48:47;16.50;99.90
23738;DHT22;12049;51.068;3.688;2022-10-23T06:51:13;16.50;99.90
23738;DHT22;12049;51.068;3.688;2022-10-23T06:53:40;16.60;99.90
23738;DHT22;12049;51.068;3.688;2022-10-23T06:56:06;16.60;99.90
23738;DHT22;12049;51.068;3.688;2022-10-23T06:58:32;16.70;99.90
23738;DHT22;12049;51.068;3.688;2022-10-23T07:01:02;16.70;99.90
23738;DHT22;12049;51.068;3.688;2022-10-23T07:03:28;16.60;99.90
23738;DHT22;12049;51.068;3.688;2022-10-23T07:05:53;16.50;99.90
23738;DHT22;12049;51.068;3.688;2022-10-23T07:08:19;16.50;99.90
23738;DHT22;12049;51.068;3.688;2022-10-23T07:10:46;16.50;99.90
23738;DHT22;12049;51.068;3.688;2022-10-23T07:13:12;16.40;99.90
23738;DHT22;12049;51.068;3.688;2022-10-23T07:15:38;16.40;99.90
23738;DHT22;12049;51.068;3.688;2022-10-23T07:18:04;16.40;99.90
23738;DHT22;12049;51.068;3.688;2022-10-23T07:20:29;16.50;99.90
23738;DHT22;12049;51.068;3.688;2022-10-23T07:22:55;16.60;99.90
23738;DHT22;12049;51.068;3.688;2022-10-23T07:25:21;16.70;99.90
23738;DHT22;12049;51.068;3.688;2022-10-23T07:27:47;17.10;99.90
23738;DHT22;12049;51.068;3.688;2022-10-23T07:30:13;17.10;99.90
23738;DHT22;12049;51.068;3.688;2022-10-23T07:32:39;16.90;99.90
23738;DHT22;12049;51.068;3.688;2022-10-23T07:35:05;16.80;99.90
23738;DHT22;12049;51.068;3.688;2022-10-23T07:37:33;16.70;99.90
23738;DHT22;12049;51.068;3.688;2022-10-23T07:39:59;16.60;99.90
23738;DHT22;12049;51.068;3.688;2022-10-23T07:42:24;16.60;99.90
23738;DHT22;12049;51.068;3.688;2022-10-23T07:44:50;16.60;99.90
23738;DHT22;12049;51.068;3.688;2022-10-23T07:47:15;16.90;99.90
23738;DHT22;12049;51.068;3.688;2022-10-23T07:49:41;16.90;99.90
23738;DHT22;12049;51.068;3.688;2022-10-23T07:52:06;16.90;99.90
23738;DHT22;12049;51.068;3.688;2022-10-23T07:54:32;17.10;99.90
23738;DHT22;12049;51.068;3.688;2022-10-23T07:56:58;17.00;99.90
23738;DHT22;12049;51.068;3.688;2022-10-23T07:59:23;16.90;99.90
23738;DHT22;12049;51.068;3.688;2022-10-23T08:01:49;16.90;99.90
23738;DHT22;12049;51.068;3.688;2022-10-23T08:04:15;16.80;99.90
23738;DHT22;12049;51.068;3.688;2022-10-23T08:06:41;16.80;99.90
23738;DHT22;12049;51.068;3.688;2022-10-23T08:09:06;16.80;99.90
23738;DHT22;12049;51.068;3.688;2022-10-23T08:11:32;16.80;99.90
23738;DHT22;12049;51.068;3.688;2022-10-23T08:14:00;16.90;99.90
23738;DHT22;12049;51.068;3.688;2022-10-23T08:16:29;16.90;99.90
23738;DHT22;12049;51.068;3.688;2022-10-23T08:18:55;16.90;99.90
23738;DHT22;12049;51.068;3.688;2022-10-23T08:21:21;16.80;99.90
23738;DHT22;12049;51.068;3.688;2022-10-23T08:23:46;16.80;99.90
23738;DHT22;12049;51.068;3.688;2022-10-23T08:26:12;16.80;99.90
23738;DHT22;12049;51.068;3.688;2022-10-23T08:28:37;16.80;99.90
23738;DHT22;12049;51.068;3.688;2022-10-23T08:31:07;16.90;99.90
23738;DHT22;12049;51.068;3.688;2022-10-23T08:33:33;16.90;99.90
23738;DHT22;12049;51.068;3.688;2022-10-23T08:35:59;16.90;99.90
23738;DHT22;12049;51.068;3.688;2022-10-23T08:38:24;16.80;99.90
23738;DHT22;12049;51.068;3.688;2022-10-23T08:40:50;16.80;99.90
23738;DHT22;12049;51.068;3.688;2022-10-23T08:43:29;16.90;99.90
23738;DHT22;12049;51.068;3.688;2022-10-23T08:46:00;16.90;99.90
23738;DHT22;12049;51.068;3.688;2022-10-23T08:51:16;17.00;99.90
23738;DHT22;12049;51.068;3.688;2022-10-23T08:53:49;16.90;99.90
23738;DHT22;12049;51.068;3.688;2022-10-23T09:01:30;16.90;99.90
23738;DHT22;12049;51.068;3.688;2022-10-23T09:03:58;16.90;99.90
23738;DHT22;12049;51.068;3.688;2022-10-23T09:06:29;16.90;99.90
23738;DHT22;12049;51.068;3.688;2022-10-23T09:09:02;17.00;99.90
23738;DHT22;12049;51.068;3.688;2022-10-23T09:19:26;17.10;99.90
23738;DHT22;12049;51.068;3.688;2022-10-23T09:21:52;17.20;99.90
23738;DHT22;12049;51.068;3.688;2022-10-23T09:24:20;17.20;99.90
23738;DHT22;12049;51.068;3.688;2022-10-23T09:26:46;17.20;99.90
23738;DHT22;12049;51.068;3.688;2022-10-23T09:29:20;17.30;99.90
23738;DHT22;12049;51.068;3.688;2022-10-23T09:31:48;17.30;99.90
23738;DHT22;12049;51.068;3.688;2022-10-23T09:34:18;17.30;99.90
23738;DHT22;12049;51.068;3.688;2022-10-23T09:36:50;17.40;99.90
23738;DHT22;12049;51.068;3.688;2022-10-23T09:39:20;17.50;99.90
23738;DHT22;12049;51.068;3.688;2022-10-23T09:41:46;17.50;99.90
23738;DHT22;12049;51.068;3.688;2022-10-23T09:44:19;17.40;99.90
23738;DHT22;12049;51.068;3.688;2022-10-23T09:46:49;17.40;99.90
23738;DHT22;12049;51.068;3.688;2022-10-23T09:49:16;17.50;99.90
23738;DHT22;12049;51.068;3.688;2022-10-23T09:51:50;17.60;99.90
23738;DHT22;12049;51.068;3.688;2022-10-23T09:54:16;17.70;99.90
23738;DHT22;12049;51.068;3.688;2022-10-23T09:56:46;17.60;99.90
23738;DHT22;12049;51.068;3.688;2022-10-23T10:01:44;17.70;99.90
23738;DHT22;12049;51.068;3.688;2022-10-23T10:04:10;18.00;99.90
23738;DHT22;12049;51.068;3.688;2022-10-23T10:06:36;18.00;99.90
23738;DHT22;12049;51.068;3.688;2022-10-23T10:09:04;17.90;99.90
23738;DHT22;12049;51.068;3.688;2022-10-23T10:11:32;17.80;99.90
23738;DHT22;12049;51.068;3.688;2022-10-23T10:19:11;18.00;99.90
23738;DHT22;12049;51.068;3.688;2022-10-23T10:24:21;18.20;99.90
23738;DHT22;12049;51.068;3.688;2022-10-23T10:27:12;18.10;99.90
23738;DHT22;12049;51.068;3.688;2022-10-23T10:37:40;18.60;99.90
23738;DHT22;12049;51.068;3.688;2022-10-23T10:40:23;18.60;99.90
23738;DHT22;12049;51.068;3.688;2022-10-23T10:42:54;18.40;99.90
23738;DHT22;12049;51.068;3.688;2022-10-23T10:50:30;18.70;99.90
23738;DHT22;12049;51.068;3.688;2022-10-23T10:53:13;18.80;99.90
23738;DHT22;12049;51.068;3.688;2022-10-23T10:55:41;18.80;99.90
23738;DHT22;12049;51.068;3.688;2022-10-23T10:58:15;18.90;99.90
23738;DHT22;12049;51.068;3.688;2022-10-23T11:00:41;18.90;99.90
23738;DHT22;12049;51.068;3.688;2022-10-23T11:05:43;19.10;99.90
23738;DHT22;12049;51.068;3.688;2022-10-23T11:08:15;19.20;99.90
23738;DHT22;12049;51.068;3.688;2022-10-23T11:10:43;19.20;99.90
23738;DHT22;12049;51.068;3.688;2022-10-23T11:13:55;19.40;99.90
23738;DHT22;12049;51.068;3.688;2022-10-23T11:15:56;19.50;99.90
23738;DHT22;12049;51.068;3.688;2022-10-23T11:18:25;19.70;99.90
23738;DHT22;12049;51.068;3.688;2022-10-23T11:24:00;19.80;99.90
23738;DHT22;12049;51.068;3.688;2022-10-23T11:26:35;19.90;99.90
23738;DHT22;12049;51.068;3.688;2022-10-23T11:29:17;20.10;99.90
23738;DHT22;12049;51.068;3.688;2022-10-23T11:36:53;20.50;99.90
23738;DHT22;12049;51.068;3.688;2022-10-23T11:39:21;20.60;99.90
23738;DHT22;12049;51.068;3.688;2022-10-23T11:41:51;20.80;99.90
23738;DHT22;12049;51.068;3.688;2022-10-23T11:44:23;21.00;99.90
23738;DHT22;12049;51.068;3.688;2022-10-23T11:46:57;21.00;99.90
23738;DHT22;12049;51.068;3.688;2022-10-23T11:49:23;21.00;99.90
23738;DHT22;12049;51.068;3.688;2022-10-23T11:51:58;20.80;99.90
23738;DHT22;12049;51.068;3.688;2022-10-23T11:54:23;20.90;99.90
23738;DHT22;12049;51.068;3.688;2022-10-23T11:59:30;20.90;99.90
23738;DHT22;12049;51.068;3.688;2022-10-23T12:01:57;21.00;99.90
23738;DHT22;12049;51.068;3.688;2022-10-23T12:04:25;21.00;99.90
23738;DHT22;12049;51.068;3.688;2022-10-23T12:07:01;21.10;99.90
23738;DHT22;12049;51.068;3.688;2022-10-23T12:09:39;21.00;99.90
23738;DHT22;12049;51.068;3.688;2022-10-23T12:16:59;21.10;99.90
23738;DHT22;12049;51.068;3.688;2022-10-23T12:19:26;20.90;99.90
23738;DHT22;12049;51.068;3.688;2022-10-23T12:22:01;20.90;99.90
23738;DHT22;12049;51.068;3.688;2022-10-23T12:39:50;22.00;99.90
23738;DHT22;12049;51.068;3.688;2022-10-23T12:42:25;22.20;99.90
23738;DHT22;12049;51.068;3.688;2022-10-23T12:44:58;22.30;99.90
23738;DHT22;12049;51.068;3.688;2022-10-23T12:47:24;22.50;99.90
23738;DHT22;12049;51.068;3.688;2022-10-23T12:49:52;22.60;99.90
23738;DHT22;12049;51.068;3.688;2022-10-23T12:52:18;22.40;99.90
23738;DHT22;12049;51.068;3.688;2022-10-23T12:54:45;22.30;99.90
23738;DHT22;12049;51.068;3.688;2022-10-23T12:57:40;22.40;99.90
23738;DHT22;12049;51.068;3.688;2022-10-23T12:59:57;22.30;99.90
23738;DHT22;12049;51.068;3.688;2022-10-23T13:02:25;22.30;99.90
23738;DHT22;12049;51.068;3.688;2022-10-23T13:04:51;22.20;99.90
23738;DHT22;12049;51.068;3.688;2022-10-23T13:07:18;22.10;99.90
23738;DHT22;12049;51.068;3.688;2022-10-23T13:09:45;22.00;99.90
23738;DHT22;12049;51.068;3.688;2022-10-23T13:12:17;21.80;99.90
23738;DHT22;12049;51.068;3.688;2022-10-23T13:14:57;21.80;99.90
23738;DHT22;12049;51.068;3.688;2022-10-23T13:17:32;21.70;99.90
23738;DHT22;12049;51.068;3.688;2022-10-23T13:20:07;21.80;99.90
23738;DHT22;12049;51.068;3.688;2022-10-23T13:22:32;21.90;99.90
23738;DHT22;12049;51.068;3.688;2022-10-23T13:24:58;21.80;99.90
23738;DHT22;12049;51.068;3.688;2022-10-23T13:27:24;21.80;99.90
23738;DHT22;12049;51.068;3.688;2022-10-23T13:29:51;21.90;99.90
23738;DHT22;12049;51.068;3.688;2022-10-23T13:32:23;21.80;99.90
23738;DHT22;12049;51.068;3.688;2022-10-23T13:34:53;21.80;99.90
23738;DHT22;12049;51.068;3.688;2022-10-23T13:37:27;21.80;99.90
23738;DHT22;12049;51.068;3.688;2022-10-23T13:40:04;21.80;99.90
23738;DHT22;12049;51.068;3.688;2022-10-23T13:42:30;21.80;99.90
23738;DHT22;12049;51.068;3.688;2022-10-23T13:44:55;21.80;99.90
23738;DHT22;12049;51.068;3.688;2022-10-23T13:47:21;21.90;99.90
23738;DHT22;12049;51.068;3.688;2022-10-23T13:49:46;21.90;99.90
23738;DHT22;12049;51.068;3.688;2022-10-23T13:52:13;21.80;99.90
23738;DHT22;12049;51.068;3.688;2022-10-23T13:54:41;21.80;99.90
23738;DHT22;12049;51.068;3.688;2022-10-23T13:57:11;21.60;99.90
23738;DHT22;12049;51.068;3.688;2022-10-23T13:59:37;21.50;99.90
23738;DHT22;12049;51.068;3.688;2022-10-23T14:02:05;21.50;99.90
23738;DHT22;12049;51.068;3.688;2022-10-23T14:04:38;21.60;99.90
23738;DHT22;12049;51.068;3.688;2022-10-23T14:07:04;21.60;99.90
23738;DHT22;12049;51.068;3.688;2022-10-23T14:09:29;21.50;99.90
23738;DHT22;12049;51.068;3.688;2022-10-23T14:11:55;21.50;99.90
23738;DHT22;12049;51.068;3.688;2022-10-23T14:14:21;21.60;99.90
23738;DHT22;12049;51.068;3.688;2022-10-23T14:16:46;21.60;99.90
23738;DHT22;12049;51.068;3.688;2022-10-23T14:19:12;21.50;99.90
23738;DHT22;12049;51.068;3.688;2022-10-23T14:21:37;21.60;99.90
23738;DHT22;12049;51.068;3.688;2022-10-23T14:24:03;21.50;99.90
23738;DHT22;12049;51.068;3.688;2022-10-23T14:26:28;21.50;99.90
23738;DHT22;12049;51.068;3.688;2022-10-23T14:28:54;21.40;99.90
23738;DHT22;12049;51.068;3.688;2022-10-23T14:31:20;21.60;99.90
23738;DHT22;12049;51.068;3.688;2022-10-23T14:33:49;21.40;99.90
23738;DHT22;12049;51.068;3.688;2022-10-23T14:36:15;21.30;99.90
23738;DHT22;12049;51.068;3.688;2022-10-23T14:38:40;21.30;99.90
23738;DHT22;12049;51.068;3.688;2022-10-23T14:41:08;21.40;99.90
23738;DHT22;12049;51.068;3.688;2022-10-23T14:43:34;21.30;99.90
23738;DHT22;12049;51.068;3.688;2022-10-23T14:46:06;21.30;99.90
23738;DHT22;12049;51.068;3.688;2022-10-23T14:48:32;21.20;99.90
23738;DHT22;12049;51.068;3.688;2022-10-23T14:51:01;21.30;99.90
23738;DHT22;12049;51.068;3.688;2022-10-23T14:53:29;21.40;99.90
23738;DHT22;12049;51.068;3.688;2022-10-23T14:55:59;21.10;99.90
23738;DHT22;12049;51.068;3.688;2022-10-23T14:58:24;21.00;99.90
23738;DHT22;12049;51.068;3.688;2022-10-23T15:00:57;21.10;99.90
23738;DHT22;12049;51.068;3.688;2022-10-23T15:03:22;21.10;99.90
23738;DHT22;12049;51.068;3.688;2022-10-23T15:05:48;21.00;99.90
23738;DHT22;12049;51.068;3.688;2022-10-23T15:08:14;20.90;99.90
23738;DHT22;12049;51.068;3.688;2022-10-23T15:10:39;21.00;99.90
23738;DHT22;12049;51.068;3.688;2022-10-23T15:13:04;21.00;99.90
23738;DHT22;12049;51.068;3.688;2022-10-23T15:15:30;20.90;99.90
23738;DHT22;12049;51.068;3.688;2022-10-23T15:17:56;21.00;99.90
23738;DHT22;12049;51.068;3.688;2022-10-23T15:20:21;21.00;99.90
23738;DHT22;12049;51.068;3.688;2022-10-23T15:22:47;21.00;99.90
23738;DHT22;12049;51.068;3.688;2022-10-23T15:25:12;21.10;99.90
23738;DHT22;12049;51.068;3.688;2022-10-23T15:27:38;21.10;99.90
23738;DHT22;12049;51.068;3.688;2022-10-23T15:30:03;21.30;99.90
23738;DHT22;12049;51.068;3.688;2022-10-23T15:32:29;21.40;99.90
23738;DHT22;12049;51.068;3.688;2022-10-23T15:34:54;21.30;99.90
23738;DHT22;12049;51.068;3.688;2022-10-23T15:37:22;21.20;99.90
23738;DHT22;12049;51.068;3.688;2022-10-23T15:39:48;21.10;99.90
23738;DHT22;12049;51.068;3.688;2022-10-23T15:42:13;21.10;99.90
23738;DHT22;12049;51.068;3.688;2022-10-23T15:44:39;21.20;99.90
23738;DHT22;12049;51.068;3.688;2022-10-23T15:47:05;21.10;99.90
23738;DHT22;12049;51.068;3.688;2022-10-23T15:49:31;21.20;99.90
23738;DHT22;12049;51.068;3.688;2022-10-23T15:51:56;21.10;99.90
23738;DHT22;12049;51.068;3.688;2022-10-23T15:54:22;21.10;99.90
23738;DHT22;12049;51.068;3.688;2022-10-23T15:56:49;21.10;99.90
23738;DHT22;12049;51.068;3.688;2022-10-23T15:59:15;21.20;99.90
23738;DHT22;12049;51.068;3.688;2022-10-23T16:01:41;21.20;99.90
23738;DHT22;12049;51.068;3.688;2022-10-23T16:04:07;21.20;99.90
23738;DHT22;12049;51.068;3.688;2022-10-23T16:06:32;21.00;99.90
23738;DHT22;12049;51.068;3.688;2022-10-23T16:08:58;21.00;99.90
23738;DHT22;12049;51.068;3.688;2022-10-23T16:11:25;21.00;99.90
23738;DHT22;12049;51.068;3.688;2022-10-23T16:13:52;21.00;99.90
23738;DHT22;12049;51.068;3.688;2022-10-23T16:16:18;20.90;99.90
23738;DHT22;12049;51.068;3.688;2022-10-23T16:18:44;21.00;99.90
23738;DHT22;12049;51.068;3.688;2022-10-23T16:23:42;20.80;99.90
23738;DHT22;12049;51.068;3.688;2022-10-23T16:26:07;20.80;99.90
23738;DHT22;12049;51.068;3.688;2022-10-23T16:28:33;20.80;99.90
23738;DHT22;12049;51.068;3.688;2022-10-23T16:30:58;20.80;99.90
23738;DHT22;12049;51.068;3.688;2022-10-23T16:33:24;20.90;99.90
23738;DHT22;12049;51.068;3.688;2022-10-23T16:35:49;20.70;99.90
23738;DHT22;12049;51.068;3.688;2022-10-23T16:38:15;20.60;99.90
23738;DHT22;12049;51.068;3.688;2022-10-23T16:40:40;20.50;99.90
23738;DHT22;12049;51.068;3.688;2022-10-23T16:43:06;20.60;99.90
23738;DHT22;12049;51.068;3.688;2022-10-23T16:45:31;20.80;99.90
23738;DHT22;12049;51.068;3.688;2022-10-23T16:47:57;20.70;99.90
23738;DHT22;12049;51.068;3.688;2022-10-23T16:50:22;20.60;99.90
23738;DHT22;12049;51.068;3.688;2022-10-23T16:52:48;20.70;99.90
23738;DHT22;12049;51.068;3.688;2022-10-23T16:55:13;20.70;99.90
23738;DHT22;12049;51.068;3.688;2022-10-23T16:57:39;20.50;99.90
23738;DHT22;12049;51.068;3.688;2022-10-23T17:00:05;20.50;99.90
23738;DHT22;12049;51.068;3.688;2022-10-23T17:02:31;20.60;99.90
23738;DHT22;12049;51.068;3.688;2022-10-23T17:04:56;20.50;99.90
23738;DHT22;12049;51.068;3.688;2022-10-23T17:07:22;20.40;99.90
23738;DHT22;12049;51.068;3.688;2022-10-23T17:09:48;20.50;99.90
23738;DHT22;12049;51.068;3.688;2022-10-23T17:12:13;20.50;99.90
23738;DHT22;12049;51.068;3.688;2022-10-23T17:14:39;20.50;99.90
23738;DHT22;12049;51.068;3.688;2022-10-23T17:17:04;20.30;99.90